createdAt,value
2022-09-11T00:01:51.523Z,99332.59
2022-09-11T00:04:20.609Z,99340.19
2022-09-11T00:06:50.268Z,99340.88
2022-09-11T00:09:18.757Z,99328.75
2022-09-11T00:11:47.361Z,99329.41
2022-09-11T00:14:17.517Z,99322.69
2022-09-11T00:16:47.731Z,99324.53
2022-09-11T00:19:19.332Z,99325.25
2022-09-11T00:21:50.089Z,99322.56
2022-09-11T00:24:18.867Z,99323.47
2022-09-11T00:26:48.010Z,99320.13
2022-09-11T00:29:18.538Z,99322.88
2022-09-11T00:31:49.348Z,99314.25
2022-09-11T00:34:18.104Z,99311.03
2022-09-11T00:36:46.758Z,99307.75
2022-09-11T00:39:15.538Z,99307.13
2022-09-11T00:41:46.449Z,99307.75
2022-09-11T00:44:38.237Z,99307.56
2022-09-11T00:47:10.468Z,99313.44
2022-09-11T00:49:42.466Z,99303.34
2022-09-11T00:52:17.181Z,99300.53
2022-09-11T00:54:51.217Z,99299.66
2022-09-11T00:57:24.312Z,99301.38
2022-09-11T00:59:59.118Z,99307.50
2022-09-11T01:02:33.123Z,99304.88
2022-09-11T01:05:02.351Z,99300.34
2022-09-11T01:07:32.521Z,99303.75
2022-09-11T01:10:01.390Z,99306.94
2022-09-11T01:12:38.229Z,99305.13
2022-09-11T01:15:10.559Z,99305.72
2022-09-11T01:17:52.880Z,99292.00
2022-09-11T01:20:30.518Z,99301.50
2022-09-11T01:23:13.018Z,99295.41
2022-09-11T01:26:00.142Z,99301.59
2022-09-11T01:28:37.990Z,99292.25
2022-09-11T01:31:12.345Z,99296.59
2022-09-11T01:33:47.260Z,99299.13
2022-09-11T01:36:21.077Z,99311.97
2022-09-11T01:38:54.671Z,99306.84
2022-09-11T01:41:29.312Z,99310.13
2022-09-11T01:44:07.663Z,99298.91
2022-09-11T01:46:43.054Z,99296.38
2022-09-11T01:49:18.432Z,99295.75
2022-09-11T01:51:51.274Z,99299.22
2022-09-11T01:54:23.810Z,99306.66
2022-09-11T01:56:56.814Z,99309.09
2022-09-11T01:59:32.943Z,99297.81
2022-09-11T02:02:05.411Z,99298.75
2022-09-11T02:04:40.174Z,99310.81
2022-09-11T02:07:16.410Z,99300.47
2022-09-11T02:09:51.492Z,99299.59
2022-09-11T02:12:21.871Z,99294.19
2022-09-11T02:14:53.752Z,99292.34
2022-09-11T02:17:28.670Z,99287.94
2022-09-11T02:20:00.689Z,99292.06
2022-09-11T02:22:29.677Z,99290.22
2022-09-11T02:25:02.946Z,99292.00
2022-09-11T02:27:32.652Z,99288.69
2022-09-11T02:30:03.944Z,99285.34
2022-09-11T02:32:37.880Z,99280.00
2022-09-11T02:35:08.292Z,99281.44
2022-09-11T02:37:48.591Z,99271.78
2022-09-11T02:40:42.071Z,99279.28
2022-09-11T02:43:35.013Z,99292.88
2022-09-11T02:46:34.834Z,99291.09
2022-09-11T02:49:12.790Z,99293.59
2022-09-11T02:51:50.784Z,99293.72
2022-09-11T02:54:27.252Z,99277.63
2022-09-11T02:57:06.323Z,99283.72
2022-09-11T02:59:41.569Z,99285.38
2022-09-11T03:02:15.937Z,99288.28
2022-09-11T03:04:45.803Z,99286.75
2022-09-11T03:07:14.141Z,99284.19
2022-09-11T03:09:43.416Z,99282.41
2022-09-11T03:12:19.053Z,99292.63
2022-09-11T03:14:50.899Z,99277.88
2022-09-11T03:17:22.222Z,99282.00
2022-09-11T03:19:51.012Z,99277.78
2022-09-11T03:22:21.004Z,99282.00
2022-09-11T03:24:49.835Z,99284.56
2022-09-11T03:27:19.052Z,99284.72
2022-09-11T03:29:48.420Z,99281.16
2022-09-11T03:32:17.479Z,99284.44
2022-09-11T03:34:48.151Z,99274.13
2022-09-11T03:37:18.641Z,99273.63
2022-09-11T03:39:49.659Z,99278.06
2022-09-11T03:42:18.064Z,99281.50
2022-09-11T03:44:46.849Z,99282.41
2022-09-11T03:47:15.739Z,99285.78
2022-09-11T03:49:44.320Z,99286.56
2022-09-11T03:52:14.771Z,99281.34
2022-09-11T03:54:43.371Z,99286.50
2022-09-11T03:57:13.263Z,99279.56
2022-09-11T03:59:41.933Z,99289.91
2022-09-11T04:02:10.753Z,99295.84
2022-09-11T04:04:39.551Z,99288.88
2022-09-11T04:07:08.194Z,99293.06
2022-09-11T04:09:38.271Z,99300.00
2022-09-11T04:12:08.293Z,99290.50
2022-09-11T04:14:36.999Z,99292.16
2022-09-11T04:17:08.510Z,99305.00
2022-09-11T04:19:40.181Z,99306.66
2022-09-11T04:22:09.333Z,99306.53
2022-09-11T04:24:42.902Z,99308.31
2022-09-11T04:27:13.350Z,99306.66
2022-09-11T04:29:43.233Z,99303.09
2022-09-11T04:32:12.032Z,99300.38
2022-09-11T04:34:41.810Z,99305.38
2022-09-11T04:37:12.009Z,99299.25
2022-09-11T04:39:43.191Z,99300.94
2022-09-11T04:42:11.973Z,99304.28
2022-09-11T04:44:41.382Z,99299.88
2022-09-11T04:47:10.821Z,99301.56
2022-09-11T04:49:41.265Z,99299.00
2022-09-11T04:52:12.225Z,99303.09
2022-09-11T04:54:42.352Z,99302.22
2022-09-11T04:57:12.523Z,99295.22
2022-09-11T04:59:41.130Z,99298.66
2022-09-11T05:02:13.903Z,99295.88
2022-09-11T05:04:46.932Z,99291.50
2022-09-11T05:07:15.611Z,99298.34
2022-09-11T05:09:49.639Z,99294.88
2022-09-11T05:12:20.773Z,99284.56
2022-09-11T05:14:49.471Z,99295.69
2022-09-11T05:17:18.524Z,99293.78
2022-09-11T05:19:47.413Z,99287.75
2022-09-11T05:22:16.061Z,99289.25
2022-09-11T05:24:52.779Z,99294.31
2022-09-11T05:27:21.532Z,99291.56
2022-09-11T05:29:51.043Z,99288.94
2022-09-11T05:32:19.842Z,99294.75
2022-09-11T05:34:48.496Z,99291.81
2022-09-11T05:37:18.720Z,99295.69
2022-09-11T05:39:49.961Z,99294.34
2022-09-11T05:42:22.103Z,99297.59
2022-09-11T05:44:55.030Z,99287.31
2022-09-11T05:47:26.594Z,99295.81
2022-09-11T05:49:57.909Z,99299.41
2022-09-11T05:52:28.327Z,99288.31
2022-09-11T05:54:57.005Z,99290.78
2022-09-11T05:57:28.573Z,99298.41
2022-09-11T05:59:57.162Z,99292.38
2022-09-11T06:02:25.857Z,99304.38
2022-09-11T06:04:56.708Z,99302.59
2022-09-11T06:07:26.976Z,99289.63
2022-09-11T06:09:59.693Z,99299.78
2022-09-11T06:12:33.634Z,99304.91
2022-09-11T06:15:02.694Z,99307.53
2022-09-11T06:17:32.621Z,99304.81
2022-09-11T06:20:02.253Z,99307.28
2022-09-11T06:22:33.821Z,99309.13
2022-09-11T06:25:02.611Z,99316.19
2022-09-11T06:27:31.378Z,99311.13
2022-09-11T06:30:01.592Z,99316.03
2022-09-11T06:32:36.732Z,99319.44
2022-09-11T06:35:07.354Z,99309.72
2022-09-11T06:37:37.133Z,99310.41
2022-09-11T06:40:06.751Z,99305.97
2022-09-11T06:42:37.263Z,99309.38
2022-09-11T06:45:08.831Z,99308.50
2022-09-11T06:47:37.609Z,99310.06
2022-09-11T06:50:07.202Z,99312.44
2022-09-11T06:52:59.303Z,99311.53
2022-09-11T06:55:32.241Z,99301.88
2022-09-11T06:58:08.698Z,99307.03
2022-09-11T07:00:41.126Z,99310.38
2022-09-11T07:03:13.563Z,99310.38
2022-09-11T07:05:47.095Z,99316.38
2022-09-11T07:08:16.187Z,99311.22
2022-09-11T07:10:45.525Z,99317.44
2022-09-11T07:13:15.296Z,99314.06
2022-09-11T07:15:45.226Z,99319.09
2022-09-11T07:18:13.814Z,99321.56
2022-09-11T07:20:42.675Z,99314.44
2022-09-11T07:23:12.765Z,99321.22
2022-09-11T07:25:43.691Z,99321.81
2022-09-11T07:28:12.675Z,99323.56
2022-09-11T07:30:41.925Z,99318.28
2022-09-11T07:33:12.388Z,99325.00
2022-09-11T07:35:42.455Z,99320.53
2022-09-11T07:38:11.187Z,99322.22
2022-09-11T07:40:41.646Z,99323.88
2022-09-11T07:43:10.737Z,99329.03
2022-09-11T07:45:39.186Z,99326.44
2022-09-11T07:48:08.117Z,99327.13
2022-09-11T07:50:37.997Z,99321.97
2022-09-11T07:53:07.354Z,99326.78
2022-09-11T07:55:37.368Z,99327.53
2022-09-11T07:58:06.228Z,99326.31
2022-09-11T08:00:37.182Z,99329.50
2022-09-11T08:03:15.786Z,99331.19
2022-09-11T08:05:46.287Z,99331.06
2022-09-11T08:08:15.076Z,99329.13
2022-09-11T08:10:43.938Z,99330.47
2022-09-11T08:13:12.784Z,99339.00
2022-09-11T08:15:48.253Z,99329.22
2022-09-11T08:18:17.347Z,99342.63
2022-09-11T08:20:47.448Z,99346.75
2022-09-11T08:23:16.694Z,99342.03
2022-09-11T08:25:45.924Z,99348.50
2022-09-11T08:28:16.078Z,99336.22
2022-09-11T08:30:44.977Z,99335.97
2022-09-11T08:33:14.437Z,99328.16
2022-09-11T08:35:43.592Z,99322.84
2022-09-11T08:38:14.291Z,99318.38
2022-09-11T08:40:43.289Z,99338.25
2022-09-11T08:43:22.275Z,99332.25
2022-09-11T08:45:57.342Z,99325.38
2022-09-11T08:48:34.007Z,99323.56
2022-09-11T08:51:02.989Z,99335.66
2022-09-11T08:53:35.745Z,99333.97
2022-09-11T08:56:11.759Z,99327.88
2022-09-11T08:58:50.549Z,99333.06
2022-09-11T09:01:27.929Z,99330.84
2022-09-11T09:04:21.427Z,99333.28
2022-09-11T09:07:04.639Z,99329.03
2022-09-11T09:09:44.517Z,99330.03
2022-09-11T09:12:22.820Z,99323.47
2022-09-11T09:15:18.018Z,99316.69
2022-09-11T09:17:51.482Z,99311.69
2022-09-11T09:20:23.287Z,99320.06
2022-09-11T09:22:57.368Z,99321.38
2022-09-11T09:25:35.698Z,99320.59
2022-09-11T09:28:12.657Z,99327.25
2022-09-11T09:30:51.067Z,99330.28
2022-09-11T09:33:35.113Z,99321.88
2022-09-11T09:36:17.211Z,99313.47
2022-09-11T09:38:47.440Z,99311.94
2022-09-11T09:41:41.658Z,99312.53
2022-09-11T09:44:22.929Z,99314.94
2022-09-11T09:46:55.911Z,99321.47
2022-09-11T09:49:29.258Z,99315.16
2022-09-11T09:52:04.110Z,99315.25
2022-09-11T09:54:36.802Z,99312.31
2022-09-11T09:57:10.822Z,99304.59
2022-09-11T09:59:44.784Z,99299.28
2022-09-11T10:02:13.729Z,99309.56
2022-09-11T10:04:42.359Z,99303.91
2022-09-11T10:07:14.630Z,99301.19
2022-09-11T10:09:48.816Z,99303.03
2022-09-11T10:12:24.580Z,99301.03
2022-09-11T10:14:57.711Z,99306.34
2022-09-11T10:17:33.710Z,99317.03
2022-09-11T10:20:23.210Z,99313.81
2022-09-11T10:22:52.131Z,99322.47
2022-09-11T10:25:23.315Z,99309.84
2022-09-11T10:28:02.160Z,99302.16
2022-09-11T10:30:34.423Z,99302.03
2022-09-11T10:33:06.961Z,99304.38
2022-09-11T10:35:37.993Z,99307.84
2022-09-11T10:38:18.286Z,99295.34
2022-09-11T10:41:08.245Z,99300.50
2022-09-11T10:43:50.818Z,99296.75
2022-09-11T10:46:40.113Z,99298.16
2022-09-11T10:49:11.095Z,99287.53
2022-09-11T10:51:45.532Z,99283.38
2022-09-11T10:54:33.625Z,99274.84
2022-09-11T10:57:13.664Z,99278.38
2022-09-11T10:59:55.865Z,99280.72
2022-09-11T11:02:31.908Z,99278.63
2022-09-11T11:05:05.233Z,99274.25
2022-09-11T11:07:51.666Z,99277.28
2022-09-11T11:10:33.614Z,99286.50
2022-09-11T11:13:16.170Z,99285.00
2022-09-11T11:16:02.159Z,99283.13
2022-09-11T11:18:42.143Z,99286.94
2022-09-11T11:21:25.627Z,99282.47
2022-09-11T11:24:17.967Z,99278.59
2022-09-11T11:27:09.015Z,99279.13
2022-09-11T11:30:02.773Z,99281.69
2022-09-11T11:32:56.724Z,99285.28
2022-09-11T11:35:30.596Z,99281.22
2022-09-11T11:38:11.007Z,99286.03
2022-09-11T11:40:46.435Z,99272.06
2022-09-11T11:43:17.818Z,99271.47
2022-09-11T11:45:52.628Z,99266.31
2022-09-11T11:48:32.486Z,99273.59
2022-09-11T11:51:06.689Z,99275.34
2022-09-11T11:53:40.645Z,99271.75
2022-09-11T11:56:16.521Z,99266.16
2022-09-11T11:58:51.636Z,99274.56
2022-09-11T12:01:25.936Z,99270.44
2022-09-11T12:04:03.085Z,99268.53
2022-09-11T12:06:31.805Z,99269.41
2022-09-11T12:09:00.767Z,99282.78
2022-09-11T12:11:33.177Z,99272.56
2022-09-11T12:14:03.311Z,99272.16
2022-09-11T12:16:35.020Z,99269.53
2022-09-11T12:19:17.798Z,99262.97
2022-09-11T12:22:07.600Z,99258.41
2022-09-11T12:24:59.429Z,99264.66
2022-09-11T12:27:53.630Z,99255.06
2022-09-11T12:30:25.869Z,99252.63
2022-09-11T12:32:56.078Z,99248.72
2022-09-11T12:35:38.608Z,99249.28
2022-09-11T12:38:20.388Z,99248.19
2022-09-11T12:40:55.458Z,99245.47
2022-09-11T12:43:47.733Z,99244.72
2022-09-11T12:46:43.490Z,99253.03
2022-09-11T12:49:28.540Z,99263.94
2022-09-11T12:52:02.333Z,99262.84
2022-09-11T12:54:34.835Z,99260.94
2022-09-11T12:57:07.140Z,99263.16
2022-09-11T12:59:39.539Z,99258.75
2022-09-11T13:02:27.327Z,99259.44
2022-09-11T13:04:58.732Z,99255.25
2022-09-11T13:07:36.341Z,99264.78
2022-09-11T13:10:09.565Z,99265.94
2022-09-11T13:12:52.980Z,99263.66
2022-09-11T13:15:34.920Z,99264.41
2022-09-11T13:18:16.733Z,99260.78
2022-09-11T13:20:59.675Z,99262.03
2022-09-11T13:23:32.959Z,99251.44
2022-09-11T13:26:03.761Z,99240.34
2022-09-11T13:28:36.721Z,99239.66
2022-09-11T13:31:05.538Z,99230.28
2022-09-11T13:33:34.344Z,99232.75
2022-09-11T13:36:08.613Z,99228.41
2022-09-11T13:38:39.542Z,99231.50
2022-09-11T13:41:15.190Z,99230.50
2022-09-11T13:43:48.081Z,99220.94
2022-09-11T13:46:24.896Z,99234.72
2022-09-11T13:48:59.618Z,99231.75
2022-09-11T13:51:31.778Z,99226.19
2022-09-11T13:54:12.063Z,99230.78
2022-09-11T13:56:47.615Z,99232.63
2022-09-11T13:59:28.853Z,99230.31
2022-09-11T14:02:01.001Z,99234.22
2022-09-11T14:04:30.399Z,99233.31
2022-09-11T14:06:59.044Z,99236.88
2022-09-11T14:09:29.243Z,99234.94
2022-09-11T14:12:03.784Z,99235.91
2022-09-11T14:14:34.349Z,99239.94
2022-09-11T14:17:03.159Z,99238.69
2022-09-11T14:19:35.122Z,99246.91
2022-09-11T14:22:17.882Z,99239.38
2022-09-11T14:24:57.549Z,99243.56
2022-09-11T14:27:39.154Z,99242.09
2022-09-11T14:30:30.662Z,99244.53
2022-09-11T14:33:18.140Z,99240.81
2022-09-11T14:35:50.553Z,99237.19
2022-09-11T14:38:22.190Z,99234.66
2022-09-11T14:40:58.112Z,99242.88
2022-09-11T14:43:33.107Z,99240.69
2022-09-11T14:46:03.308Z,99246.41
2022-09-11T14:48:33.417Z,99244.25
2022-09-11T14:51:10.062Z,99242.13
2022-09-11T14:53:43.669Z,99246.41
2022-09-11T14:56:14.392Z,99241.56
2022-09-11T14:58:43.152Z,99253.44
2022-09-11T15:01:15.627Z,99252.31
2022-09-11T15:03:44.986Z,99266.78
2022-09-11T15:06:20.889Z,99277.97
2022-09-11T15:08:49.804Z,99288.53
2022-09-11T15:11:19.794Z,99299.25
2022-09-11T15:14:13.265Z,99299.81
2022-09-11T15:16:37.757Z,99301.78
2022-09-11T15:19:06.433Z,99295.34
2022-09-11T15:21:37.576Z,99306.94
2022-09-11T15:24:07.391Z,99304.66
2022-09-11T15:26:37.509Z,99313.47
2022-09-11T15:29:10.142Z,99320.63
2022-09-11T15:31:38.953Z,99312.53
2022-09-11T15:34:08.565Z,99311.25
2022-09-11T15:36:38.693Z,99304.69
2022-09-11T15:39:07.644Z,99310.00
2022-09-11T15:41:37.983Z,99301.63
2022-09-11T15:44:11.194Z,99307.19
2022-09-11T15:46:40.370Z,99307.47
2022-09-11T15:49:09.040Z,99315.78
2022-09-11T15:51:39.157Z,99309.53
2022-09-11T15:54:08.024Z,99312.34
2022-09-11T15:56:38.913Z,99310.72
2022-09-11T15:59:07.512Z,99312.75
2022-09-11T16:01:37.800Z,99319.00
2022-09-11T16:04:08.402Z,99317.59
2022-09-11T16:06:40.101Z,99315.31
2022-09-11T16:09:13.297Z,99315.72
2022-09-11T16:11:44.341Z,99315.91
2022-09-11T16:14:19.211Z,99319.38
2022-09-11T16:16:48.569Z,99319.38
2022-09-11T16:19:17.683Z,99319.44
2022-09-11T16:21:46.520Z,99326.28
2022-09-11T16:24:15.685Z,99319.44
2022-09-11T16:26:46.165Z,99315.03
2022-09-11T16:29:18.215Z,99314.38
2022-09-11T16:31:47.123Z,99316.22
2022-09-11T16:34:18.256Z,99316.31
2022-09-11T16:36:49.327Z,99316.41
2022-09-11T16:39:20.687Z,99318.53
2022-09-11T16:41:50.865Z,99320.69
2022-09-11T16:44:20.009Z,99312.53
2022-09-11T16:46:49.086Z,99317.94
2022-09-11T16:49:20.537Z,99328.53
2022-09-11T16:51:49.276Z,99316.75
2022-09-11T16:54:18.229Z,99317.13
2022-09-11T16:56:47.049Z,99318.28
2022-09-11T16:59:17.178Z,99315.34
2022-09-11T17:01:46.544Z,99315.75
2022-09-11T17:04:15.197Z,99314.00
2022-09-11T17:06:44.015Z,99325.47
2022-09-11T17:09:12.637Z,99326.44
2022-09-11T17:11:42.198Z,99322.56
2022-09-11T17:14:11.607Z,99327.31
2022-09-11T17:16:41.948Z,99331.75
2022-09-11T17:19:11.150Z,99326.72
2022-09-11T17:21:39.950Z,99327.16
2022-09-11T17:24:09.385Z,99339.25
2022-09-11T17:26:38.159Z,99337.69
2022-09-11T17:29:07.858Z,99342.94
2022-09-11T17:31:37.010Z,99346.63
2022-09-11T17:34:07.120Z,99351.91
2022-09-11T17:36:35.927Z,99345.25
2022-09-11T17:39:05.689Z,99354.13
2022-09-11T17:41:34.808Z,99353.28
2022-09-11T17:44:03.529Z,99361.97
2022-09-11T17:46:32.382Z,99362.81
2022-09-11T17:49:02.644Z,99362.13
2022-09-11T17:51:32.788Z,99370.91
2022-09-11T17:54:01.482Z,99366.50
2022-09-11T17:56:32.291Z,99370.91
2022-09-11T17:59:02.059Z,99377.66
2022-09-11T18:01:31.748Z,99368.28
2022-09-11T18:04:00.930Z,99377.75
2022-09-11T18:06:32.897Z,99381.09
2022-09-11T18:09:12.188Z,99378.38
2022-09-11T18:11:41.256Z,99367.88
2022-09-11T18:14:09.908Z,99379.00
2022-09-11T18:16:39.594Z,99384.25
2022-09-11T18:19:08.450Z,99381.78
2022-09-11T18:21:38.404Z,99383.53
2022-09-11T18:24:09.972Z,99387.13
2022-09-11T18:26:41.162Z,99389.78
2022-09-11T18:29:13.940Z,99388.94
2022-09-11T18:31:44.651Z,99390.50
2022-09-11T18:34:15.495Z,99398.16
2022-09-11T18:36:45.400Z,99399.16
2022-09-11T18:39:18.001Z,99404.19
2022-09-11T18:41:47.741Z,99404.09
2022-09-11T18:44:19.914Z,99400.72
2022-09-11T18:46:53.433Z,99405.19
2022-09-11T18:49:22.928Z,99406.22
2022-09-11T18:51:52.095Z,99401.84
2022-09-11T18:54:23.432Z,99404.41
2022-09-11T18:56:52.481Z,99400.34
2022-09-11T18:59:21.516Z,99404.78
2022-09-11T19:01:50.476Z,99405.88
2022-09-11T19:04:20.642Z,99418.78
2022-09-11T19:06:49.681Z,99411.84
2022-09-11T19:09:18.564Z,99418.47
2022-09-11T19:11:48.702Z,99410.59
2022-09-11T19:14:18.051Z,99413.81
2022-09-11T19:16:49.029Z,99424.00
2022-09-11T19:19:18.014Z,99426.63
2022-09-11T19:21:49.056Z,99420.59
2022-09-11T19:24:21.092Z,99431.69
2022-09-11T19:26:54.336Z,99423.16
2022-09-11T19:29:23.323Z,99414.72
2022-09-11T19:31:52.971Z,99415.66
2022-09-11T19:34:22.942Z,99401.13
2022-09-11T19:36:53.244Z,99408.47
2022-09-11T19:39:22.792Z,99396.34
2022-09-11T19:41:52.867Z,99398.00
2022-09-11T19:44:21.674Z,99400.41
2022-09-11T19:46:53.817Z,99398.75
2022-09-11T19:49:22.454Z,99402.22
2022-09-11T19:51:53.767Z,99404.72
2022-09-11T19:54:23.346Z,99405.56
2022-09-11T19:56:53.182Z,99409.81
2022-09-11T19:59:21.435Z,99414.03
2022-09-11T20:01:50.258Z,99421.81
2022-09-11T20:04:19.285Z,99420.97
2022-09-11T20:09:32.038Z,99426.22
2022-09-11T20:12:02.956Z,99433.19
2022-09-11T20:14:31.949Z,99422.09
2022-09-11T20:17:01.197Z,99429.91
2022-09-11T20:19:30.125Z,99428.41
2022-09-11T20:22:00.475Z,99428.63
2022-09-11T20:24:29.659Z,99423.47
2022-09-11T20:27:00.311Z,99425.22
2022-09-11T20:29:31.067Z,99421.00
2022-09-11T20:32:00.666Z,99421.94
2022-09-11T20:34:29.006Z,99422.06
2022-09-11T20:37:00.880Z,99422.16
2022-09-11T20:39:29.725Z,99425.59
2022-09-11T20:42:00.414Z,99419.81
2022-09-11T20:44:34.916Z,99423.31
2022-09-11T20:47:05.766Z,99415.59
2022-09-11T20:49:34.586Z,99419.88
2022-09-11T20:52:04.125Z,99419.06
2022-09-11T20:54:32.788Z,99420.75
2022-09-11T20:57:01.370Z,99411.28
2022-09-11T20:59:31.290Z,99415.59
2022-09-11T21:02:00.698Z,99419.06
2022-09-11T21:04:29.306Z,99423.31
2022-09-11T21:06:57.983Z,99420.75
2022-09-11T21:09:26.681Z,99432.09
2022-09-11T21:11:55.389Z,99427.03
2022-09-11T21:14:24.130Z,99428.69
2022-09-11T21:16:55.072Z,99430.31
2022-09-11T21:19:23.630Z,99432.94
2022-09-11T21:21:52.413Z,99434.63
2022-09-11T21:24:21.100Z,99438.22
2022-09-11T21:26:49.821Z,99429.56
2022-09-11T21:29:18.641Z,99445.03
2022-09-11T21:31:47.252Z,99441.59
2022-09-11T21:34:17.923Z,99439.09
2022-09-11T21:36:47.398Z,99443.44
2022-09-11T21:39:16.140Z,99444.31
2022-09-11T21:41:44.907Z,99449.63
2022-09-11T21:44:13.481Z,99441.94
2022-09-11T21:46:42.244Z,99450.47
2022-09-11T21:49:11.693Z,99447.09
2022-09-11T21:51:42.023Z,99453.19
2022-09-11T21:54:10.686Z,99455.91
2022-09-11T21:56:39.251Z,99454.34
2022-09-11T21:59:08.020Z,99447.59
2022-09-11T22:01:37.144Z,99456.25
2022-09-11T22:04:05.931Z,99450.34
2022-09-11T22:06:34.627Z,99461.56
2022-09-11T22:09:04.689Z,99463.28
2022-09-11T22:11:33.549Z,99467.53
2022-09-11T22:14:02.133Z,99465.94
2022-09-11T22:16:30.865Z,99470.22
2022-09-11T22:18:59.489Z,99462.50
2022-09-11T22:21:28.130Z,99463.41
2022-09-11T22:23:57.604Z,99470.38
2022-09-11T22:26:30.321Z,99466.06
2022-09-11T22:28:59.502Z,99463.44
2022-09-11T22:31:29.364Z,99473.75
2022-09-11T22:33:58.262Z,99464.34
2022-09-11T22:36:28.803Z,99463.44
2022-09-11T22:38:58.080Z,99459.97
2022-09-11T22:41:28.810Z,99461.63
2022-09-11T22:43:57.602Z,99463.34
2022-09-11T22:46:27.221Z,99457.34
2022-09-11T22:48:57.467Z,99469.34
2022-09-11T22:51:26.509Z,99467.53
2022-09-11T22:53:55.302Z,99470.09
2022-09-11T22:56:24.033Z,99465.06
2022-09-11T22:58:55.091Z,99474.66
2022-09-11T23:01:24.482Z,99478.16
2022-09-11T23:03:54.015Z,99474.06
2022-09-11T23:06:33.030Z,99470.84
2022-09-11T23:09:01.998Z,99472.88
2022-09-11T23:11:30.507Z,99470.53
2022-09-11T23:14:00.743Z,99468.16
2022-09-11T23:16:31.394Z,99469.88
2022-09-11T23:19:01.780Z,99464.78
2022-09-11T23:21:32.972Z,99465.66
2022-09-11T23:24:02.251Z,99466.50
2022-09-11T23:26:31.178Z,99477.31
2022-09-11T23:29:01.433Z,99472.28
2022-09-11T23:31:32.526Z,99478.47
2022-09-11T23:34:03.030Z,99478.72
2022-09-11T23:36:32.434Z,99473.00
2022-09-11T23:39:01.401Z,99467.19
2022-09-11T23:41:32.202Z,99463.19
2022-09-11T23:44:04.042Z,99472.91
2022-09-11T23:46:33.877Z,99472.97
2022-09-11T23:49:02.535Z,99473.94
2022-09-11T23:51:31.161Z,99471.34
2022-09-11T23:53:59.902Z,99478.16
2022-09-11T23:56:28.624Z,99471.19
2022-09-11T23:58:57.436Z,99477.25
